Bonita, CA (91908)

4:36 AM PST on December 29, 2014 (GMT -0800)
Bonita Rd | Change Station
CLOSE
Current Station
Personal Weather Station
Location: Chula Vista, CA
Elevation: 85 ft
Nearby Weather Stations

Elev 85 ft 32.65 °N, 117.05 °W | Updated 12 minutes ago

Clear
Clear
38.4 °F
Feels Like 38 °F
N
0.0
Wind Variable Wind from WSW

Today
High -- | Low -- °F
--% Chance of Precip.
Yesterday
High -- | Low -- °F
Precip. -- in
6:49 AM 4:51 PM
First Quarter, 58% visible
Pressure 30.13 in
Visibility 10.0 miles
Clouds Clear
Windchill 38 °F
Dew Point 36 °F
Humidity 90%
Rainfall 0.00 in
Snow Depth Not available.
UV 0 out of 12
Pollen 5.50 out of 12
Air Quality Not available.
Flu Activity Not available.
METAR KSDM 291153Z AUTO 14007KT 10SM CLR 06/00 A3013 RMK AO2 SLP201 T00610000 10083 20044 56008 $

More Conditions Fewer Conditions

Pressure 30.13 in
Visibility 10.0 miles
Clouds Clear
Windchill 38 °F
Dew Point 36 °F
Humidity 90%
Rainfall 0.00 in
Snow Depth Not available.
UV 0 out of 12
Pollen 5.50 out of 12
Air Quality Not available.
Flu Activity Not available.
METAR KSDM 291153Z AUTO 14007KT 10SM CLR 06/00 A3013 RMK AO2 SLP201 T00610000 10083 20044 56008 $

More Conditions Fewer Conditions

10-Day Weather Forecast

Almanac

Astronomy

Dec. 29, 2014 Rise Set
Actual Time
Civil Twilight
Nautical Twilight
Astronomical Twilight
Moon
Length of Visible Light
Length of Day
Tomorrow will be .
, % of the Moon is Illuminated

Today's Extremes

State Highs State Lows

Community

WunderPhotos

Upload Photos

1,781,574 photos uploaded!

WunderBlogs® & News

Nearby

Air Quality

  Air Quality AQ Index Pollutant
Not available.

Snow Depth

Station Depth Elevation

Earthquake Activity

City Distance Mag. Time & Date
Minimum magnitude displayed is 2.5.

Coastal Water Temperatures

Place Temperature

Nearby Weather Stations